Time;durP1;ratioP1;P1;durP2;ratioP2;P2;SDS_P1;SDS_P2;PMS_P1;PMS_P2;Temp;Humidity;BMP_temperature;BMP_pressure;BME280_temperature;BME280_humidity;BME280_pressure;Samples;Min_cycle;Max_cycle;Signal;HPM_P1;HPM_P2
2023/10/12 00:00:52;;;;;;;;;;;16.50;99.90;;;;;;2623430;47;19953;-77
2023/10/12 00:03:25;;;;;;;;;;;16.40;99.90;;;;;;2624611;54;19943;-80
2023/10/12 00:05:55;;;;;;;;;;;16.40;99.90;;;;;;2627518;54;19939;-79
2023/10/12 00:08:30;;;;;;;;;;;16.40;99.90;;;;;;2627495;54;19946;-79
2023/10/12 00:11:06;;;;;;;;;;;16.30;99.90;;;;;;2627757;54;20436;-78
2023/10/12 00:13:41;;;;;;;;;;;16.40;99.90;;;;;;2625800;47;19951;-79
2023/10/12 00:16:12;;;;;;;;;;;16.40;99.90;;;;;;2624056;47;19982;-77
2023/10/12 00:18:45;;;;;;;;;;;16.50;99.90;;;;;;2623423;47;20002;-79
2023/10/12 00:21:18;;;;;;;;;;;16.40;99.90;;;;;;2622312;47;19939;-78
2023/10/12 00:23:51;;;;;;;;;;;16.30;99.90;;;;;;2621604;47;19991;-78
2023/10/12 00:26:22;;;;;;;;;;;16.30;99.90;;;;;;2622819;47;19946;-79
2023/10/12 00:28:55;;;;;;;;;;;16.30;99.90;;;;;;2624898;46;19962;-79
2023/10/12 00:31:25;;;;;;;;;;;16.30;99.90;;;;;;2623115;54;19947;-79
2023/10/12 00:33:57;;;;;;;;;;;16.30;99.90;;;;;;2620080;54;19939;-78
2023/10/12 00:36:27;;;;;;;;;;;16.50;99.90;;;;;;2619855;47;19946;-79
2023/10/12 00:38:57;;;;;;;;;;;16.40;99.90;;;;;;2621053;39;20347;-77
2023/10/12 00:41:29;;;;;;;;;;;16.30;99.90;;;;;;2620013;47;19938;-78
2023/10/12 00:44:08;;;;;;;;;;;16.30;99.90;;;;;;2620680;54;20439;-78
2023/10/12 00:49:30;;;;;;;;;;;16.30;99.90;;;;;;2619973;47;19947;-79
2023/10/12 00:52:08;;;;;;;;;;;16.20;99.90;;;;;;2619442;47;19939;-78
2023/10/12 00:54:49;;;;;;;;;;;16.20;99.90;;;;;;2619212;54;19945;-78
2023/10/12 00:57:19;;;;;;;;;;;16.20;99.90;;;;;;2618939;54;19958;-79
2023/10/12 00:59:52;;;;;;;;;;;16.20;99.90;;;;;;2619623;47;19953;-79
2023/10/12 01:02:24;;;;;;;;;;;16.20;99.90;;;;;;2625532;47;19934;-79
2023/10/12 01:04:55;;;;;;;;;;;16.20;99.90;;;;;;2626618;47;19950;-80
2023/10/12 01:07:34;;;;;;;;;;;16.20;99.90;;;;;;2621245;47;19958;-79
2023/10/12 01:10:06;;;;;;;;;;;16.20;99.90;;;;;;2623692;47;20019;-78
2023/10/12 01:12:37;;;;;;;;;;;16.20;99.90;;;;;;2619855;54;19995;-80
2023/10/12 01:15:11;;;;;;;;;;;16.20;99.90;;;;;;2619616;54;19940;-79
2023/10/12 01:17:41;;;;;;;;;;;16.10;99.90;;;;;;2619353;47;19995;-79
2023/10/12 01:20:16;;;;;;;;;;;16.10;99.90;;;;;;2620087;39;20606;-77
2023/10/12 01:22:49;;;;;;;;;;;16.10;99.90;;;;;;2620555;31;20488;-79
2023/10/12 01:25:28;;;;;;;;;;;16.10;99.90;;;;;;2620620;54;20061;-78
2023/10/12 01:28:05;;;;;;;;;;;16.10;99.90;;;;;;2620303;39;20367;-78
2023/10/12 01:30:36;;;;;;;;;;;16.20;99.90;;;;;;2619946;47;19950;-78
2023/10/12 01:33:06;;;;;;;;;;;16.10;99.90;;;;;;2621128;54;20037;-79
2023/10/12 01:35:39;;;;;;;;;;;16.10;99.90;;;;;;2621547;31;20462;-78
2023/10/12 01:38:14;;;;;;;;;;;16.30;99.90;;;;;;2619732;47;19973;-78
2023/10/12 01:40:52;;;;;;;;;;;16.10;99.90;;;;;;2619832;47;20847;-78
2023/10/12 01:43:27;;;;;;;;;;;16.10;99.90;;;;;;2619967;39;20300;-79
2023/10/12 01:46:06;;;;;;;;;;;16.10;99.90;;;;;;2619909;47;19946;-79
2023/10/12 01:48:37;;;;;;;;;;;16.10;99.90;;;;;;2619607;54;19969;-79
2023/10/12 01:51:14;;;;;;;;;;;16.10;99.90;;;;;;2620683;47;19951;-79
2023/10/12 01:53:49;;;;;;;;;;;16.10;99.90;;;;;;2620154;46;19938;-78
2023/10/12 01:56:19;;;;;;;;;;;16.10;99.90;;;;;;2619153;39;20774;-79
2023/10/12 01:58:51;;;;;;;;;;;16.10;99.90;;;;;;2618856;47;19990;-78
2023/10/12 02:01:24;;;;;;;;;;;16.10;99.90;;;;;;2618941;47;19938;-79
2023/10/12 02:03:57;;;;;;;;;;;16.10;99.90;;;;;;2617096;47;19953;-79
2023/10/12 02:06:28;;;;;;;;;;;16.10;99.90;;;;;;2621518;47;19950;-78
2023/10/12 02:09:08;;;;;;;;;;;16.10;99.90;;;;;;2624402;54;19958;-78
2023/10/12 02:11:53;;;;;;;;;;;16.10;99.90;;;;;;2627528;54;19971;-79
2023/10/12 02:14:32;;;;;;;;;;;16.10;99.90;;;;;;2618157;47;19947;-77
2023/10/12 02:17:05;;;;;;;;;;;16.10;99.90;;;;;;2618855;47;20702;-78
2023/10/12 02:19:38;;;;;;;;;;;16.10;99.90;;;;;;2618763;54;19958;-78
2023/10/12 02:22:19;;;;;;;;;;;16.20;99.90;;;;;;2618857;54;20428;-78
2023/10/12 02:25:09;;;;;;;;;;;16.10;99.90;;;;;;2619047;47;20974;-79
2023/10/12 02:27:41;;;;;;;;;;;16.20;99.90;;;;;;2619361;54;20488;-77
2023/10/12 05:03:39;;;;;;;;;;;16.20;99.90;;;;;;2622984;54;21193;-83
2023/10/12 05:06:08;;;;;;;;;;;16.80;99.90;;;;;;2639688;39;20514;-82
2023/10/12 05:08:40;;;;;;;;;;;16.80;99.90;;;;;;2629508;46;19926;-79
2023/10/12 05:11:11;;;;;;;;;;;18.10;99.90;;;;;;2631901;39;20467;-82
2023/10/12 05:13:45;;;;;;;;;;;18.20;99.90;;;;;;2628527;54;19966;-80
2023/10/12 05:16:17;;;;;;;;;;;16.80;99.90;;;;;;2628975;54;19953;-81
2023/10/12 05:18:49;;;;;;;;;;;17.00;99.90;;;;;;2628823;47;19979;-81
2023/10/12 05:21:19;;;;;;;;;;;16.90;99.90;;;;;;2629100;47;19945;-81
2023/10/12 05:23:49;;;;;;;;;;;17.10;99.90;;;;;;2626299;54;19939;-80
2023/10/12 05:26:25;;;;;;;;;;;17.00;99.90;;;;;;2628253;54;19934;-80
2023/10/12 05:29:18;;;;;;;;;;;17.00;99.90;;;;;;2625345;47;19963;-81
2023/10/12 05:32:04;;;;;;;;;;;17.10;99.90;;;;;;2624223;54;19995;-79
2023/10/12 05:34:52;;;;;;;;;;;17.10;99.90;;;;;;2624234;54;19938;-80
2023/10/12 05:37:37;;;;;;;;;;;17.10;99.90;;;;;;2625841;39;20415;-80
2023/10/12 05:40:13;;;;;;;;;;;17.10;99.90;;;;;;2628391;47;20259;-80
2023/10/12 05:42:46;;;;;;;;;;;17.10;99.90;;;;;;2624690;47;20074;-81
2023/10/12 05:45:22;;;;;;;;;;;17.00;99.90;;;;;;2625336;54;19946;-81
2023/10/12 05:47:53;;;;;;;;;;;17.10;99.90;;;;;;2625686;47;19947;-79
2023/10/12 05:50:30;;;;;;;;;;;17.10;99.90;;;;;;2625254;47;19939;-79
2023/10/12 05:53:07;;;;;;;;;;;17.10;99.90;;;;;;2623913;54;20000;-80
2023/10/12 05:55:37;;;;;;;;;;;17.10;99.90;;;;;;2624607;54;19959;-79
2023/10/12 05:58:11;;;;;;;;;;;17.10;99.90;;;;;;2624774;47;20428;-79
2023/10/12 06:00:45;;;;;;;;;;;17.10;99.90;;;;;;2623834;47;19953;-80
2023/10/12 06:03:20;;;;;;;;;;;17.10;99.90;;;;;;2626027;39;20332;-80
2023/10/12 06:05:53;;;;;;;;;;;17.10;99.90;;;;;;2620272;47;19942;-77
2023/10/12 06:08:26;;;;;;;;;;;17.00;99.90;;;;;;2620928;47;19962;-77
2023/10/12 06:10:58;;;;;;;;;;;17.00;99.90;;;;;;2617558;54;20606;-77
2023/10/12 06:13:33;;;;;;;;;;;17.10;99.90;;;;;;2616133;54;19947;-75
2023/10/12 06:16:03;;;;;;;;;;;17.00;99.90;;;;;;2624069;54;19939;-78
2023/10/12 06:18:37;;;;;;;;;;;17.00;99.90;;;;;;2625918;54;19958;-78
2023/10/12 06:21:10;;;;;;;;;;;17.10;99.90;;;;;;2618302;54;19958;-74
2023/10/12 06:23:43;;;;;;;;;;;17.10;99.90;;;;;;2616489;47;20424;-74
2023/10/12 06:26:28;;;;;;;;;;;17.10;99.90;;;;;;2617580;47;20037;-74
2023/10/12 06:28:59;;;;;;;;;;;17.10;99.90;;;;;;2621251;47;19950;-75
2023/10/12 06:31:29;;;;;;;;;;;17.10;99.90;;;;;;2618133;47;19947;-76
2023/10/12 06:34:04;;;;;;;;;;;17.10;99.90;;;;;;2618150;54;19995;-82
2023/10/12 06:36:39;;;;;;;;;;;17.10;99.90;;;;;;2616927;46;19974;-76
2023/10/12 06:42:09;;;;;;;;;;;17.60;99.90;;;;;;2618643;48;20017;-76
2023/10/12 06:44:36;;;;;;;;;;;17.20;99.90;;;;;;2617823;47;20007;-76
2023/10/12 06:47:28;;;;;;;;;;;17.20;99.90;;;;;;2617261;47;20050;-77
2023/10/12 06:50:00;;;;;;;;;;;17.30;99.90;;;;;;2616675;54;20073;-74
2023/10/12 06:52:30;;;;;;;;;;;17.30;99.90;;;;;;2616595;47;19951;-76
2023/10/12 06:55:00;;;;;;;;;;;17.30;99.90;;;;;;2617547;46;19966;-76
2023/10/12 06:57:37;;;;;;;;;;;17.30;99.90;;;;;;2616883;47;19992;-77
2023/10/12 07:00:33;;;;;;;;;;;17.40;99.90;;;;;;2617924;47;19953;-76
2023/10/12 07:03:03;;;;;;;;;;;17.40;99.90;;;;;;2617190;47;19970;-77
2023/10/12 07:05:37;;;;;;;;;;;17.40;99.90;;;;;;2617670;39;20317;-74
2023/10/12 07:08:15;;;;;;;;;;;17.40;99.90;;;;;;2615848;47;20794;-73
2023/10/12 07:10:59;;;;;;;;;;;17.50;99.90;;;;;;2615881;47;20265;-70
2023/10/12 07:13:29;;;;;;;;;;;17.40;99.90;;;;;;2616132;47;19947;-71
2023/10/12 07:16:00;;;;;;;;;;;17.50;99.90;;;;;;2621204;54;19946;-72
2023/10/12 07:18:34;;;;;;;;;;;17.40;99.90;;;;;;2619326;54;20458;-73
2023/10/12 07:21:18;;;;;;;;;;;17.40;99.90;;;;;;2617183;47;19953;-73
2023/10/12 07:23:52;;;;;;;;;;;17.40;99.90;;;;;;2616483;47;19946;-73
2023/10/12 07:26:23;;;;;;;;;;;17.40;99.90;;;;;;2616599;54;19943;-75
2023/10/12 07:28:55;;;;;;;;;;;17.50;99.90;;;;;;2616312;54;19947;-74
2023/10/12 07:31:41;;;;;;;;;;;17.40;99.90;;;;;;2616978;54;19950;-74
2023/10/12 07:34:15;;;;;;;;;;;17.60;99.90;;;;;;2617180;47;19957;-74
2023/10/12 07:36:57;;;;;;;;;;;17.50;99.90;;;;;;2617848;47;19959;-74
2023/10/12 07:39:38;;;;;;;;;;;17.50;99.90;;;;;;2617292;47;20042;-74
2023/10/12 07:42:12;;;;;;;;;;;17.50;99.90;;;;;;2617519;54;20064;-74
2023/10/12 07:44:42;;;;;;;;;;;17.50;99.90;;;;;;2618447;47;20471;-72
2023/10/12 07:47:31;;;;;;;;;;;17.50;99.90;;;;;;2618007;39;20402;-74
2023/10/12 07:50:08;;;;;;;;;;;17.50;99.90;;;;;;2617859;54;19954;-72
2023/10/12 07:52:53;;;;;;;;;;;17.50;99.90;;;;;;2617457;54;19950;-74
2023/10/12 07:55:29;;;;;;;;;;;17.60;99.90;;;;;;2617620;54;19958;-74
2023/10/12 07:57:59;;;;;;;;;;;17.50;99.90;;;;;;2617563;47;19947;-73
2023/10/12 08:00:34;;;;;;;;;;;17.60;99.90;;;;;;2620404;54;19947;-73
2023/10/12 08:05:56;;;;;;;;;;;17.50;99.90;;;;;;2618046;54;19939;-73
2023/10/12 08:08:40;;;;;;;;;;;17.50;99.90;;;;;;2618327;49;20042;-74
2023/10/12 08:11:22;;;;;;;;;;;17.50;99.90;;;;;;2618142;54;19954;-77
2023/10/12 08:13:54;;;;;;;;;;;17.50;99.90;;;;;;2622182;54;19946;-73
2023/10/12 08:16:40;;;;;;;;;;;17.50;99.90;;;;;;2616562;39;20427;-73
2023/10/12 08:22:03;;;;;;;;;;;17.60;99.90;;;;;;2611817;47;19954;-75
2023/10/12 08:24:36;;;;;;;;;;;17.50;99.90;;;;;;2618857;39;20351;-74
2023/10/12 08:27:11;;;;;;;;;;;17.20;99.90;;;;;;2619891;47;19942;-73
2023/10/12 08:30:11;;;;;;;;;;;17.40;99.90;;;;;;2618995;54;19958;-74
2023/10/12 08:32:55;;;;;;;;;;;17.50;99.90;;;;;;2619149;47;20843;-75
2023/10/12 08:36:22;;;;;;;;;;;17.50;99.90;;;;;;2619535;54;19950;-73
2023/10/12 08:38:33;;;;;;;;;;;17.40;99.90;;;;;;2618157;53;20060;-75
2023/10/12 08:43:48;;;;;;;;;;;17.50;99.90;;;;;;2618750;47;19946;-75
2023/10/12 08:49:33;;;;;;;;;;;17.50;99.90;;;;;;2619401;54;19946;-76
2023/10/12 08:52:04;;;;;;;;;;;17.50;99.90;;;;;;2622037;54;19951;-73
2023/10/12 08:54:37;;;;;;;;;;;17.50;99.90;;;;;;2623772;47;19957;-73
2023/10/12 08:57:12;;;;;;;;;;;17.50;99.90;;;;;;2618517;47;19953;-73
2023/10/12 08:59:57;;;;;;;;;;;17.50;99.90;;;;;;2617880;47;19999;-73
2023/10/12 09:02:28;;;;;;;;;;;17.50;99.90;;;;;;2617725;46;19947;-73
2023/10/12 09:04:59;;;;;;;;;;;17.40;99.90;;;;;;2617327;47;19953;-74
2023/10/12 09:07:40;;;;;;;;;;;17.40;99.90;;;;;;2619147;39;20430;-74
2023/10/12 09:10:28;;;;;;;;;;;17.30;99.90;;;;;;2618887;47;20502;-74
2023/10/12 09:13:01;;;;;;;;;;;17.40;99.90;;;;;;2618177;47;20125;-73
2023/10/12 09:15:45;;;;;;;;;;;17.40;99.90;;;;;;2617719;51;19954;-75
2023/10/12 09:18:16;;;;;;;;;;;17.40;99.90;;;;;;2617229;54;19981;-74
2023/10/12 09:20:59;;;;;;;;;;;17.40;99.90;;;;;;2618220;39;20355;-74
2023/10/12 09:23:38;;;;;;;;;;;17.50;99.90;;;;;;2616756;54;20492;-73
2023/10/12 09:26:19;;;;;;;;;;;17.50;99.90;;;;;;2621377;39;20352;-73
2023/10/12 09:29:07;;;;;;;;;;;17.50;99.90;;;;;;2617587;46;19984;-74
2023/10/12 09:34:47;;;;;;;;;;;17.50;99.90;;;;;;2620216;47;20452;-77
2023/10/12 09:37:20;;;;;;;;;;;17.50;99.90;;;;;;2620876;47;19947;-77
2023/10/12 09:39:53;;;;;;;;;;;17.50;99.90;;;;;;2624003;39;20440;-77
2023/10/12 09:42:39;;;;;;;;;;;17.50;99.90;;;;;;2624311;54;19972;-78
2023/10/12 09:45:11;;;;;;;;;;;17.50;99.90;;;;;;2624951;47;20357;-79
2023/10/12 09:48:05;;;;;;;;;;;17.60;99.90;;;;;;2625081;47;19978;-79
2023/10/12 09:50:36;;;;;;;;;;;17.60;99.90;;;;;;2625090;47;20002;-79
2023/10/12 09:53:22;;;;;;;;;;;17.60;99.90;;;;;;2624641;54;19975;-79
2023/10/12 09:56:10;;;;;;;;;;;17.60;99.90;;;;;;2624411;54;19966;-79
2023/10/12 09:58:51;;;;;;;;;;;17.60;99.90;;;;;;2624911;54;19945;-78
2023/10/12 10:01:45;;;;;;;;;;;17.60;99.90;;;;;;2624852;54;19958;-78
2023/10/12 10:04:34;;;;;;;;;;;17.70;99.90;;;;;;2624888;54;20534;-78
2023/10/12 10:07:17;;;;;;;;;;;17.70;99.90;;;;;;2624830;54;19998;-78
2023/10/12 10:09:49;;;;;;;;;;;17.70;99.90;;;;;;2624967;46;19939;-78
2023/10/12 10:12:27;;;;;;;;;;;18.30;99.90;;;;;;2625528;54;19968;-79
2023/10/12 10:15:10;;;;;;;;;;;17.70;99.90;;;;;;2624792;54;19950;-79
2023/10/12 10:17:46;;;;;;;;;;;17.70;99.90;;;;;;2625132;47;19938;-78
2023/10/12 10:23:19;;;;;;;;;;;17.70;99.90;;;;;;2626134;47;19947;-79
2023/10/12 10:26:16;;;;;;;;;;;17.80;99.90;;;;;;2625122;47;19985;-80
2023/10/12 10:28:54;;;;;;;;;;;17.70;99.90;;;;;;2627436;47;19979;-78
2023/10/12 10:31:27;;;;;;;;;;;17.70;99.90;;;;;;2629688;54;19950;-80
2023/10/12 10:34:04;;;;;;;;;;;17.70;99.90;;;;;;2631371;39;20988;-80
2023/10/12 10:36:38;;;;;;;;;;;17.80;99.90;;;;;;2624954;54;19945;-78
2023/10/12 10:39:28;;;;;;;;;;;18.40;99.90;;;;;;2622981;50;19954;-78
2023/10/12 10:42:00;;;;;;;;;;;17.70;99.90;;;;;;2623592;47;19977;-79
2023/10/12 10:44:32;;;;;;;;;;;17.60;99.90;;;;;;2621939;54;20028;-77
2023/10/12 10:47:06;;;;;;;;;;;17.70;99.90;;;;;;2620101;39;20247;-76
2023/10/12 10:49:36;;;;;;;;;;;17.70;99.90;;;;;;2619284;47;20021;-75
2023/10/12 10:52:20;;;;;;;;;;;17.70;99.90;;;;;;2618818;47;19950;-75
2023/10/12 10:54:59;;;;;;;;;;;17.70;99.90;;;;;;2619394;46;19962;-76
2023/10/12 10:57:37;;;;;;;;;;;17.70;99.90;;;;;;2619480;39;20348;-75
2023/10/12 11:00:15;;;;;;;;;;;17.70;99.90;;;;;;2618831;47;19946;-81
2023/10/12 11:02:47;;;;;;;;;;;17.70;99.90;;;;;;2623950;47;19953;-78
2023/10/12 11:05:19;;;;;;;;;;;17.70;99.90;;;;;;2622292;54;19963;-77
2023/10/12 11:07:53;;;;;;;;;;;17.70;99.90;;;;;;2619789;47;19975;-75
2023/10/12 11:10:31;;;;;;;;;;;17.70;99.90;;;;;;2619913;47;19954;-76
2023/10/12 11:13:00;;;;;;;;;;;17.70;99.90;;;;;;2619889;47;19947;-75
2023/10/12 11:15:30;;;;;;;;;;;17.70;99.90;;;;;;2619404;54;19947;-78
2023/10/12 11:18:07;;;;;;;;;;;17.70;99.90;;;;;;2617753;54;19946;-76
2023/10/12 11:20:43;;;;;;;;;;;17.70;99.90;;;;;;2619968;47;19947;-74
2023/10/12 11:23:18;;;;;;;;;;;17.70;99.90;;;;;;2617400;54;20443;-75
2023/10/12 11:25:48;;;;;;;;;;;17.70;99.90;;;;;;2617508;47;20491;-74
2023/10/12 11:28:20;;;;;;;;;;;17.70;99.90;;;;;;2618033;47;20002;-73
2023/10/12 11:30:51;;;;;;;;;;;17.80;99.90;;;;;;2617064;54;20486;-73
2023/10/12 11:33:27;;;;;;;;;;;17.80;99.90;;;;;;2617946;54;19953;-73
2023/10/12 11:36:00;;;;;;;;;;;17.80;99.90;;;;;;2616566;46;19970;-72
2023/10/12 11:38:35;;;;;;;;;;;17.80;99.90;;;;;;2617154;47;20042;-73
2023/10/12 11:41:16;;;;;;;;;;;17.80;99.90;;;;;;2617762;47;19947;-75
2023/10/12 11:43:53;;;;;;;;;;;17.80;99.90;;;;;;2617721;39;20348;-75
2023/10/12 11:46:23;;;;;;;;;;;17.80;99.90;;;;;;2617222;47;19939;-75
2023/10/12 11:49:04;;;;;;;;;;;17.90;99.90;;;;;;2619163;47;19998;-78
2023/10/12 11:51:40;;;;;;;;;;;17.90;99.90;;;;;;2621414;54;19946;-79
2023/10/12 11:54:19;;;;;;;;;;;18.00;99.90;;;;;;2618439;47;19970;-78
2023/10/12 11:56:52;;;;;;;;;;;18.00;99.90;;;;;;2618331;47;19939;-75
2023/10/12 11:59:31;;;;;;;;;;;18.00;99.90;;;;;;2618386;54;19945;-76
2023/10/12 12:02:07;;;;;;;;;;;18.00;99.90;;;;;;2620349;47;19999;-77
2023/10/12 12:04:41;;;;;;;;;;;18.00;99.90;;;;;;2621203;47;20009;-77
2023/10/12 12:07:22;;;;;;;;;;;18.00;99.90;;;;;;2624291;54;19950;-77
2023/10/12 12:10:00;;;;;;;;;;;18.00;99.90;;;;;;2620644;47;19988;-77
2023/10/12 12:12:31;;;;;;;;;;;18.10;99.90;;;;;;2617912;47;19946;-73
2023/10/12 12:15:00;;;;;;;;;;;18.10;99.90;;;;;;2615952;39;20336;-76
2023/10/12 12:17:31;;;;;;;;;;;18.10;99.90;;;;;;2617136;47;19951;-81
2023/10/12 12:20:01;;;;;;;;;;;18.20;99.90;;;;;;2615449;51;19947;-74
2023/10/12 12:22:42;;;;;;;;;;;18.30;99.90;;;;;;2616580;39;20453;-75
2023/10/12 12:25:38;;;;;;;;;;;18.30;99.90;;;;;;2615203;46;20016;-78
2023/10/12 12:28:13;;;;;;;;;;;18.30;99.90;;;;;;2616960;54;19950;-75
2023/10/12 12:30:51;;;;;;;;;;;18.30;99.90;;;;;;2619644;47;19946;-77
2023/10/12 12:33:24;;;;;;;;;;;18.40;99.90;;;;;;2618786;47;19950;-79
2023/10/12 12:35:59;;;;;;;;;;;18.40;99.90;;;;;;2617690;47;19991;-77
2023/10/12 12:41:26;;;;;;;;;;;18.40;99.90;;;;;;2617093;47;19938;-76
2023/10/12 12:43:58;;;;;;;;;;;18.30;99.90;;;;;;2616587;54;19958;-75
2023/10/12 12:46:29;;;;;;;;;;;18.30;99.90;;;;;;2616672;54;19954;-76
2023/10/12 12:49:00;;;;;;;;;;;18.30;99.90;;;;;;2617236;54;20003;-76
2023/10/12 12:51:30;;;;;;;;;;;18.40;99.90;;;;;;2619608;47;19953;-75
2023/10/12 12:54:02;;;;;;;;;;;18.40;99.90;;;;;;2617136;47;19950;-77
2023/10/12 12:56:36;;;;;;;;;;;18.40;99.90;;;;;;2618694;47;19938;-77
2023/10/12 12:59:06;;;;;;;;;;;18.40;99.90;;;;;;2621432;54;19946;-76
2023/10/12 13:01:39;;;;;;;;;;;18.40;99.90;;;;;;2621547;47;19954;-76
2023/10/12 13:04:09;;;;;;;;;;;18.40;99.90;;;;;;2619889;47;20006;-75
2023/10/12 13:06:39;;;;;;;;;;;18.40;99.90;;;;;;2619995;47;19999;-79
2023/10/12 13:09:28;;;;;;;;;;;18.40;99.90;;;;;;2619268;47;19975;-76
2023/10/12 13:12:01;;;;;;;;;;;18.40;99.90;;;;;;2619014;47;19953;-76
2023/10/12 13:14:31;;;;;;;;;;;18.40;99.90;;;;;;2618258;47;20046;-76
2023/10/12 13:17:01;;;;;;;;;;;18.30;99.90;;;;;;2618635;39;20358;-77
2023/10/12 13:19:32;;;;;;;;;;;18.30;99.90;;;;;;2618149;47;20029;-77
2023/10/12 13:22:02;;;;;;;;;;;18.30;99.90;;;;;;2617709;54;19939;-78
2023/10/12 13:24:35;;;;;;;;;;;18.30;99.90;;;;;;2620494;31;20430;-75
2023/10/12 13:27:19;;;;;;;;;;;18.30;99.90;;;;;;2618948;54;19958;-77
2023/10/12 13:29:49;;;;;;;;;;;18.20;99.90;;;;;;2618698;47;20543;-77
2023/10/12 13:32:21;;;;;;;;;;;18.20;99.90;;;;;;2618591;47;19954;-75
2023/10/12 13:34:51;;;;;;;;;;;18.20;99.90;;;;;;2618276;51;19983;-75
2023/10/12 13:37:21;;;;;;;;;;;18.20;99.90;;;;;;2617870;54;20061;-75
2023/10/12 13:39:53;;;;;;;;;;;18.20;99.90;;;;;;2619391;54;19953;-76
2023/10/12 13:42:28;;;;;;;;;;;18.20;99.90;;;;;;2620719;47;19943;-75
2023/10/12 13:47:34;;;;;;;;;;;18.10;99.90;;;;;;2616731;54;19969;-74
2023/10/12 13:50:05;;;;;;;;;;;18.10;99.90;;;;;;2618337;54;19951;-74
2023/10/12 13:52:37;;;;;;;;;;;18.10;99.90;;;;;;2617281;51;19951;-75
2023/10/12 13:55:11;;;;;;;;;;;18.10;99.90;;;;;;2615204;54;19947;-76
2023/10/12 13:57:55;;;;;;;;;;;18.10;99.90;;;;;;2616569;47;19947;-77
2023/10/12 14:03:27;;;;;;;;;;;18.00;99.90;;;;;;2622014;54;19981;-74
2023/10/12 14:05:57;;;;;;;;;;;18.10;99.90;;;;;;2620709;39;20379;-77
2023/10/12 14:08:28;;;;;;;;;;;18.00;99.90;;;;;;2620180;39;20338;-77
2023/10/12 14:11:03;;;;;;;;;;;18.00;99.90;;;;;;2620686;51;19946;-76
2023/10/12 14:13:35;;;;;;;;;;;18.00;99.90;;;;;;2618340;46;19947;-75
2023/10/12 14:16:09;;;;;;;;;;;17.90;99.90;;;;;;2615557;47;19953;-74
2023/10/12 14:18:39;;;;;;;;;;;18.00;99.90;;;;;;2617676;54;20010;-77
2023/10/12 14:21:11;;;;;;;;;;;17.90;99.90;;;;;;2620196;47;20414;-76
2023/10/12 14:23:43;;;;;;;;;;;17.90;99.90;;;;;;2614057;47;20446;-75
2023/10/12 14:26:17;;;;;;;;;;;18.00;99.90;;;;;;2615616;47;19947;-75
2023/10/12 14:28:53;;;;;;;;;;;17.90;99.90;;;;;;2616040;47;19951;-76
2023/10/12 14:31:23;;;;;;;;;;;17.90;99.90;;;;;;2614250;47;20038;-76
2023/10/12 14:33:53;;;;;;;;;;;17.90;99.90;;;;;;2617489;54;19942;-77
2023/10/12 14:36:23;;;;;;;;;;;17.90;99.90;;;;;;2616390;47;19939;-76
2023/10/12 14:38:55;;;;;;;;;;;17.90;99.90;;;;;;2616103;54;19938;-77
2023/10/12 14:41:25;;;;;;;;;;;17.90;99.90;;;;;;2614796;54;19958;-75
2023/10/12 14:43:57;;;;;;;;;;;17.90;99.90;;;;;;2617572;39;20519;-78
2023/10/12 14:46:30;;;;;;;;;;;17.90;99.90;;;;;;2617816;47;19966;-76
2023/10/12 14:49:01;;;;;;;;;;;17.90;99.90;;;;;;2617629;47;20445;-76
2023/10/12 14:51:32;;;;;;;;;;;17.90;99.90;;;;;;2616685;47;19953;-76
2023/10/12 14:54:02;;;;;;;;;;;17.90;99.90;;;;;;2617173;47;20064;-76
2023/10/12 14:56:32;;;;;;;;;;;17.80;99.90;;;;;;2619188;54;19946;-77
2023/10/12 14:59:04;;;;;;;;;;;17.90;99.90;;;;;;2619304;54;19954;-78
2023/10/12 15:01:34;;;;;;;;;;;17.90;99.90;;;;;;2618400;54;19950;-77
2023/10/12 15:04:07;;;;;;;;;;;17.90;99.90;;;;;;2603297;54;19980;-76
2023/10/12 15:06:37;;;;;;;;;;;17.90;99.90;;;;;;2609768;47;20399;-77
2023/10/12 15:09:10;;;;;;;;;;;17.90;99.90;;;;;;2609020;54;19947;-77
2023/10/12 15:11:44;;;;;;;;;;;17.80;99.90;;;;;;2609027;54;19946;-77
2023/10/12 15:14:16;;;;;;;;;;;17.60;99.90;;;;;;2608153;53;20562;-77
2023/10/12 15:16:45;;;;;;;;;;;17.70;99.90;;;;;;2609151;47;19943;-76
2023/10/12 15:19:16;;;;;;;;;;;17.70;99.90;;;;;;2609427;39;20354;-76
2023/10/12 15:21:48;;;;;;;;;;;17.70;99.90;;;;;;2608215;54;20473;-76
2023/10/12 15:24:19;;;;;;;;;;;17.70;99.90;;;;;;2611024;47;19939;-77
2023/10/12 15:26:49;;;;;;;;;;;17.70;99.90;;;;;;2618460;54;19939;-78
2023/10/12 15:29:21;;;;;;;;;;;17.70;99.90;;;;;;2618094;47;19939;-77
2023/10/12 15:31:52;;;;;;;;;;;17.70;99.90;;;;;;2619235;47;19939;-76
2023/10/12 15:34:22;;;;;;;;;;;17.70;99.90;;;;;;2617008;47;19953;-76
2023/10/12 15:36:52;;;;;;;;;;;17.70;99.90;;;;;;2619229;47;19946;-77
2023/10/12 15:39:26;;;;;;;;;;;17.70;99.90;;;;;;2618560;39;20450;-76
2023/10/12 15:41:58;;;;;;;;;;;17.70;99.90;;;;;;2616900;47;19962;-75
2023/10/12 15:44:32;;;;;;;;;;;17.70;99.90;;;;;;2618801;54;19938;-78
2023/10/12 15:47:05;;;;;;;;;;;17.70;99.90;;;;;;2619744;54;19957;-77
2023/10/12 15:49:35;;;;;;;;;;;17.70;99.90;;;;;;2618722;54;19947;-78
2023/10/12 15:52:07;;;;;;;;;;;17.70;99.90;;;;;;2618780;54;19953;-78
2023/10/12 15:54:36;;;;;;;;;;;17.70;99.90;;;;;;2623386;47;19946;-78
2023/10/12 15:57:06;;;;;;;;;;;17.80;99.90;;;;;;2622622;47;19947;-78
2023/10/12 15:59:40;;;;;;;;;;;17.70;99.90;;;;;;2624628;54;19946;-77
2023/10/12 16:02:10;;;;;;;;;;;17.70;99.90;;;;;;2622120;54;19947;-77
2023/10/12 16:04:45;;;;;;;;;;;17.80;99.90;;;;;;2623732;54;19995;-77
2023/10/12 16:07:17;;;;;;;;;;;17.80;99.90;;;;;;2621478;46;19947;-76
2023/10/12 16:09:49;;;;;;;;;;;17.80;99.90;;;;;;2623230;47;19953;-78
2023/10/12 16:12:20;;;;;;;;;;;17.60;99.90;;;;;;2617566;54;20056;-77
2023/10/12 16:14:56;;;;;;;;;;;17.70;99.90;;;;;;2620397;47;19939;-79
2023/10/12 16:17:26;;;;;;;;;;;17.70;99.90;;;;;;2620641;47;19947;-78
2023/10/12 16:19:57;;;;;;;;;;;17.70;99.90;;;;;;2620586;54;19946;-79
2023/10/12 16:22:29;;;;;;;;;;;17.70;99.90;;;;;;2620539;47;19956;-78
2023/10/12 16:25:06;;;;;;;;;;;17.70;99.90;;;;;;2619906;54;20454;-80
2023/10/12 16:27:37;;;;;;;;;;;17.70;99.90;;;;;;2621319;47;19945;-80
2023/10/12 16:30:14;;;;;;;;;;;17.70;99.90;;;;;;2629577;47;19926;-84
2023/10/12 16:32:46;;;;;;;;;;;17.70;99.90;;;;;;2630240;47;19923;-81
2023/10/12 16:35:17;;;;;;;;;;;17.70;99.90;;;;;;2627334;47;20480;-80
2023/10/12 16:37:48;;;;;;;;;;;17.70;99.90;;;;;;2628549;47;19946;-79
2023/10/12 16:40:18;;;;;;;;;;;17.70;99.90;;;;;;2627438;54;19953;-80
2023/10/12 16:42:49;;;;;;;;;;;17.70;99.90;;;;;;2626604;54;19923;-79
2023/10/12 16:45:22;;;;;;;;;;;17.70;99.90;;;;;;2627683;47;19993;-79
2023/10/12 16:47:53;;;;;;;;;;;17.70;99.90;;;;;;2629128;54;19939;-81
2023/10/12 16:50:23;;;;;;;;;;;17.70;99.90;;;;;;2629182;54;19947;-82
2023/10/12 16:52:53;;;;;;;;;;;17.70;99.90;;;;;;2630694;39;20437;-81
2023/10/12 16:55:23;;;;;;;;;;;17.70;99.90;;;;;;2624282;47;19938;-79
2023/10/12 16:57:53;;;;;;;;;;;17.70;99.90;;;;;;2623720;54;19946;-80
2023/10/12 17:00:25;;;;;;;;;;;17.70;99.90;;;;;;2626172;46;20057;-80
2023/10/12 17:02:55;;;;;;;;;;;17.70;99.90;;;;;;2621867;47;19947;-76
2023/10/12 17:05:25;;;;;;;;;;;17.70;99.90;;;;;;2621973;54;19947;-77
2023/10/12 17:07:55;;;;;;;;;;;17.70;99.90;;;;;;2620928;46;20064;-80
2023/10/12 17:10:28;;;;;;;;;;;17.60;99.90;;;;;;2619235;47;20003;-77
2023/10/12 17:12:58;;;;;;;;;;;17.60;99.90;;;;;;2625176;47;19954;-81
2023/10/12 17:15:31;;;;;;;;;;;17.60;99.90;;;;;;2629446;54;19943;-81
2023/10/12 17:18:01;;;;;;;;;;;17.60;99.90;;;;;;2629477;54;19942;-80
2023/10/12 17:20:31;;;;;;;;;;;17.70;99.90;;;;;;2629855;54;20678;-82
2023/10/12 17:23:01;;;;;;;;;;;17.60;99.90;;;;;;2630205;54;19950;-82
2023/10/12 17:25:31;;;;;;;;;;;17.60;99.90;;;;;;2629209;47;19943;-80
2023/10/12 17:28:02;;;;;;;;;;;17.60;99.90;;;;;;2629151;47;19950;-81
2023/10/12 17:30:34;;;;;;;;;;;17.60;99.90;;;;;;2632176;39;21077;-80
2023/10/12 17:33:04;;;;;;;;;;;17.60;99.90;;;;;;2629137;47;19970;-83
2023/10/12 17:35:34;;;;;;;;;;;17.60;99.90;;;;;;2629176;54;19927;-81
2023/10/12 17:38:05;;;;;;;;;;;17.60;99.90;;;;;;2629020;54;19955;-82
2023/10/12 17:40:39;;;;;;;;;;;17.60;99.90;;;;;;2629066;47;19942;-82
2023/10/12 17:43:09;;;;;;;;;;;17.60;99.90;;;;;;2629458;46;19934;-81
2023/10/12 17:45:42;;;;;;;;;;;17.60;99.90;;;;;;2629388;46;19927;-80
2023/10/12 17:48:12;;;;;;;;;;;17.60;99.90;;;;;;2626905;46;19954;-79
2023/10/12 17:50:42;;;;;;;;;;;17.60;99.90;;;;;;2627254;54;19942;-84
2023/10/12 17:53:14;;;;;;;;;;;17.60;99.90;;;;;;2626388;47;20531;-79
2023/10/12 17:55:44;;;;;;;;;;;17.60;99.90;;;;;;2623045;46;19945;-75
2023/10/12 17:58:15;;;;;;;;;;;17.60;99.90;;;;;;2615982;47;19953;-77
2023/10/12 18:00:48;;;;;;;;;;;17.60;99.90;;;;;;2616818;47;19943;-75
2023/10/12 18:03:18;;;;;;;;;;;17.50;99.90;;;;;;2616106;39;20346;-78